createdAt,value
2022-09-09T00:02:33.638Z,0.70
2022-09-09T00:05:37.804Z,0.80
2022-09-09T00:08:33.908Z,0.90
2022-09-09T00:11:34.806Z,0.80
2022-09-09T00:14:39.847Z,0.88
2022-09-09T00:17:37.813Z,0.85
2022-09-09T00:20:47.803Z,1.00
2022-09-09T00:23:44.878Z,0.73
2022-09-09T00:26:51.815Z,1.00
2022-09-09T00:29:52.824Z,0.80
2022-09-09T00:32:41.870Z,0.80
2022-09-09T00:35:30.836Z,1.00
2022-09-09T00:38:25.822Z,0.93
2022-09-09T00:41:32.819Z,0.85
2022-09-09T00:45:00.694Z,0.98
2022-09-09T00:48:15.847Z,1.00
2022-09-09T00:51:12.813Z,1.02
2022-09-09T00:54:12.502Z,0.98
2022-09-09T00:59:53.952Z,1.10
2022-09-09T01:03:09.850Z,1.10
2022-09-09T01:06:06.879Z,0.80
2022-09-09T01:09:25.836Z,1.05
2022-09-09T01:12:37.827Z,1.17
2022-09-09T01:15:35.834Z,1.10
2022-09-09T01:18:26.818Z,1.23
2022-09-09T01:21:21.881Z,1.00
2022-09-09T01:24:08.829Z,1.25
2022-09-09T01:27:26.031Z,1.30
2022-09-09T01:30:13.824Z,1.38
2022-09-09T01:32:59.725Z,1.20
2022-09-09T01:36:01.837Z,1.15
2022-09-09T01:38:49.472Z,1.20
2022-09-09T01:41:36.826Z,1.38
2022-09-09T01:44:27.939Z,1.17
2022-09-09T01:47:08.866Z,1.30
2022-09-09T01:50:19.042Z,1.23
2022-09-09T01:56:07.837Z,1.23
2022-09-09T01:59:09.894Z,1.33
2022-09-09T02:02:23.910Z,1.55
2022-09-09T02:05:32.940Z,1.40
2022-09-09T02:08:45.837Z,1.35
2022-09-09T02:11:36.015Z,1.73
2022-09-09T02:14:34.835Z,1.50
2022-09-09T02:17:21.904Z,1.73
2022-09-09T02:20:31.416Z,2.08
2022-09-09T02:23:22.855Z,1.80
2022-09-09T02:26:06.030Z,1.63
2022-09-09T02:28:54.834Z,1.60
2022-09-09T02:31:36.770Z,1.80
2022-09-09T02:34:31.842Z,1.70
2022-09-09T02:37:15.908Z,1.52
2022-09-09T02:40:05.880Z,1.83
2022-09-09T02:42:57.838Z,1.88
2022-09-09T02:46:11.848Z,1.95
2022-09-09T02:49:05.839Z,1.83
2022-09-09T02:52:09.941Z,2.17
2022-09-09T02:54:50.818Z,2.20
2022-09-09T02:57:40.853Z,1.83
2022-09-09T03:00:29.847Z,2.00
2022-09-09T03:03:20.533Z,2.00
2022-09-09T03:05:59.839Z,2.00
2022-09-09T03:08:49.629Z,1.90
2022-09-09T03:11:39.854Z,1.90
2022-09-09T03:14:25.371Z,2.30
2022-09-09T03:17:12.865Z,2.20
2022-09-09T03:19:58.770Z,2.15
2022-09-09T03:22:45.845Z,2.08
2022-09-09T03:25:27.313Z,2.30
2022-09-09T03:28:13.839Z,2.33
2022-09-09T03:30:55.897Z,1.90
2022-09-09T03:33:48.848Z,2.17
2022-09-09T03:36:29.150Z,2.40
2022-09-09T03:39:10.843Z,2.13
2022-09-09T03:41:57.831Z,1.73
2022-09-09T03:44:47.863Z,2.20
2022-09-09T03:47:31.446Z,1.83
2022-09-09T03:50:21.866Z,2.78
2022-09-09T03:53:09.015Z,2.50
2022-09-09T03:55:57.870Z,2.28
2022-09-09T03:58:44.959Z,2.50
2022-09-09T04:01:25.956Z,2.30
2022-09-09T04:04:12.856Z,2.45
2022-09-09T04:06:52.977Z,2.22
2022-09-09T04:09:39.862Z,2.40
2022-09-09T04:12:27.911Z,2.15
2022-09-09T04:15:09.843Z,2.20
2022-09-09T04:17:50.772Z,2.50
2022-09-09T04:20:38.877Z,2.30
2022-09-09T04:23:26.998Z,2.58
2022-09-09T04:26:07.853Z,2.45
2022-09-09T04:28:48.354Z,2.20
2022-09-09T04:31:37.875Z,2.22
2022-09-09T04:34:24.982Z,2.38
2022-09-09T04:37:04.856Z,2.70
2022-09-09T04:42:32.866Z,2.10
2022-09-09T04:45:20.924Z,2.42
2022-09-09T04:48:07.873Z,2.40
2022-09-09T04:51:09.680Z,2.15
2022-09-09T04:53:50.847Z,2.22
2022-09-09T04:56:37.916Z,2.30
2022-09-09T04:59:18.838Z,1.80
2022-09-09T05:02:09.890Z,2.10
2022-09-09T05:04:56.859Z,2.13
2022-09-09T05:07:44.304Z,2.20
2022-09-09T05:10:25.846Z,1.90
2022-09-09T05:13:12.912Z,1.90
2022-09-09T05:16:00.899Z,1.95
2022-09-09T05:18:49.847Z,2.10
2022-09-09T05:21:32.386Z,1.92
2022-09-09T05:24:19.853Z,1.90
2022-09-09T05:27:03.318Z,1.90
2022-09-09T05:29:51.861Z,1.67
2022-09-09T05:32:35.088Z,1.75
2022-09-09T05:35:21.872Z,1.90
2022-09-09T05:38:06.910Z,2.03
2022-09-09T05:40:57.865Z,1.75
2022-09-09T05:43:39.172Z,1.70
2022-09-09T05:46:28.951Z,1.52
2022-09-09T05:49:09.953Z,1.92
2022-09-09T05:51:57.857Z,1.50
2022-09-09T05:54:38.813Z,2.30
2022-09-09T05:57:26.858Z,1.90
2022-09-09T06:00:06.949Z,1.33
2022-09-09T06:02:59.973Z,1.83
2022-09-09T06:05:39.909Z,1.55
2022-09-09T06:08:26.853Z,1.83
2022-09-09T06:11:23.852Z,1.73
2022-09-09T06:14:05.240Z,1.40
2022-09-09T06:16:53.884Z,1.70
2022-09-09T06:19:42.918Z,1.60
2022-09-09T06:22:23.072Z,1.60
2022-09-09T06:25:09.850Z,1.50
2022-09-09T06:27:50.632Z,1.58
2022-09-09T06:30:37.870Z,1.65
2022-09-09T06:33:25.891Z,1.60
2022-09-09T06:36:13.873Z,1.70
2022-09-09T06:39:01.882Z,1.67
2022-09-09T06:41:49.867Z,1.70
2022-09-09T06:44:58.909Z,1.60
2022-09-09T06:48:03.878Z,1.45
2022-09-09T06:50:43.941Z,1.30
2022-09-09T06:53:32.870Z,1.50
2022-09-09T06:56:25.990Z,1.48
2022-09-09T06:59:16.887Z,1.30
2022-09-09T07:01:59.954Z,1.20
2022-09-09T07:04:46.885Z,1.00
2022-09-09T07:07:27.916Z,1.02
2022-09-09T07:10:14.872Z,1.80
2022-09-09T07:15:44.906Z,1.20
2022-09-09T07:18:24.922Z,1.17
2022-09-09T07:21:11.893Z,1.20
2022-09-09T07:23:52.090Z,1.30
2022-09-09T07:26:38.884Z,1.27
2022-09-09T07:29:21.024Z,0.95
2022-09-09T07:32:07.874Z,1.08
2022-09-09T07:34:48.006Z,1.05
2022-09-09T07:37:34.890Z,1.13
2022-09-09T07:40:22.888Z,1.23
2022-09-09T07:43:11.031Z,1.30
2022-09-09T07:45:51.940Z,1.20
2022-09-09T07:48:38.864Z,1.50
2022-09-09T07:54:11.910Z,1.00
2022-09-09T07:57:00.238Z,1.38
2022-09-09T07:59:48.896Z,1.02
2022-09-09T08:02:30.378Z,1.00
2022-09-09T08:05:16.894Z,1.42
2022-09-09T08:07:57.963Z,1.10
2022-09-09T08:10:44.921Z,1.05
2022-09-09T08:13:32.557Z,1.17
2022-09-09T08:16:21.925Z,1.30
2022-09-09T08:19:10.878Z,1.38
2022-09-09T08:21:52.929Z,1.33
2022-09-09T08:24:40.890Z,1.33
2022-09-09T08:27:21.014Z,1.20
2022-09-09T08:30:07.888Z,1.13
2022-09-09T08:32:49.606Z,1.25
2022-09-09T08:35:39.881Z,1.30
2022-09-09T08:38:26.880Z,1.50
2022-09-09T08:41:58.881Z,1.20
2022-09-09T08:44:55.951Z,1.40
2022-09-09T08:48:01.892Z,1.20
2022-09-09T08:50:44.294Z,1.52
2022-09-09T08:53:40.909Z,1.40
2022-09-09T08:56:26.932Z,1.50
2022-09-09T08:59:16.889Z,1.38
2022-09-09T09:02:06.070Z,1.35
2022-09-09T09:08:07.314Z,1.17
2022-09-09T09:11:08.901Z,1.30
2022-09-09T09:14:19.829Z,1.23
2022-09-09T09:17:20.892Z,1.20
2022-09-09T09:20:01.622Z,1.52
2022-09-09T09:23:05.899Z,1.35
2022-09-09T09:25:52.900Z,1.20
2022-09-09T09:28:37.599Z,1.48
2022-09-09T09:31:29.961Z,1.60
2022-09-09T09:34:12.972Z,1.42
2022-09-09T09:37:02.891Z,1.30
2022-09-09T09:42:56.928Z,1.55
2022-09-09T09:45:46.742Z,1.15
2022-09-09T09:48:41.903Z,1.42
2022-09-09T09:51:25.988Z,1.30
2022-09-09T09:54:30.922Z,1.48
2022-09-09T09:57:21.958Z,1.38
2022-09-09T10:00:25.924Z,1.70
2022-09-09T10:03:36.910Z,1.20
2022-09-09T10:09:04.907Z,1.30
2022-09-09T10:12:09.298Z,1.60
2022-09-09T10:15:07.921Z,1.48
2022-09-09T10:18:43.994Z,1.52
2022-09-09T10:21:45.904Z,1.50
2022-09-09T10:24:47.989Z,1.50
2022-09-09T10:27:59.727Z,1.58
2022-09-09T10:31:16.027Z,1.38
2022-09-09T10:34:20.919Z,1.40
2022-09-09T10:37:11.894Z,1.30
2022-09-09T10:39:58.948Z,1.30
2022-09-09T10:42:40.223Z,1.15
2022-09-09T10:45:40.902Z,1.10
2022-09-09T10:48:48.953Z,1.20
2022-09-09T10:51:52.892Z,1.35
2022-09-09T10:54:40.394Z,1.17
2022-09-09T10:57:43.897Z,1.20
2022-09-09T11:00:28.197Z,1.67
2022-09-09T11:03:18.137Z,1.20
2022-09-09T11:06:12.066Z,1.90
2022-09-09T11:08:55.121Z,1.30
2022-09-09T11:11:51.906Z,1.17
2022-09-09T11:14:50.910Z,1.20
2022-09-09T11:17:47.828Z,1.30
2022-09-09T11:20:34.930Z,1.20
2022-09-09T11:23:28.970Z,1.40
2022-09-09T11:26:14.930Z,1.40
2022-09-09T11:29:54.904Z,1.30
2022-09-09T11:33:40.936Z,1.50
2022-09-09T11:36:43.969Z,1.52
2022-09-09T11:40:12.940Z,1.27
2022-09-09T11:42:54.984Z,1.40
2022-09-09T11:45:42.970Z,1.17
2022-09-09T11:48:54.928Z,1.35
2022-09-09T11:51:42.043Z,1.08
2022-09-09T11:54:39.947Z,1.10
2022-09-09T11:57:34.236Z,1.15
2022-09-09T12:00:14.926Z,1.00
2022-09-09T12:03:01.969Z,1.35
2022-09-09T12:05:49.183Z,1.30
2022-09-09T12:08:38.030Z,1.10
2022-09-09T12:11:18.937Z,1.25
2022-09-09T12:14:14.931Z,1.23
2022-09-09T12:17:01.914Z,1.30
2022-09-09T12:19:43.033Z,1.27
2022-09-09T12:22:35.926Z,1.20
2022-09-09T12:25:58.941Z,1.58
2022-09-09T12:29:04.375Z,1.30
2022-09-09T12:32:07.971Z,1.27
2022-09-09T12:34:56.557Z,1.30
2022-09-09T12:37:54.992Z,1.20
2022-09-09T12:40:40.086Z,1.40
2022-09-09T12:43:35.942Z,1.25
2022-09-09T12:46:44.472Z,1.30
2022-09-09T12:49:49.947Z,1.13
2022-09-09T12:52:41.925Z,1.45
2022-09-09T12:55:32.026Z,1.15
2022-09-09T12:58:23.946Z,1.33
2022-09-09T13:01:05.972Z,1.30
2022-09-09T13:03:52.929Z,1.15
2022-09-09T13:06:38.015Z,1.10
2022-09-09T13:09:24.949Z,1.00
2022-09-09T13:12:05.738Z,1.30
2022-09-09T13:14:55.933Z,1.30
2022-09-09T13:17:36.880Z,1.33
2022-09-09T13:20:25.966Z,1.30
2022-09-09T13:23:12.951Z,1.33
2022-09-09T13:26:14.939Z,1.10
2022-09-09T13:28:56.102Z,1.40
2022-09-09T13:31:44.933Z,1.00
2022-09-09T13:34:38.023Z,1.20
2022-09-09T13:37:41.944Z,1.42
2022-09-09T13:40:29.580Z,1.30
2022-09-09T13:43:28.946Z,1.30
2022-09-09T13:46:32.006Z,1.50
2022-09-09T13:49:19.548Z,1.30
2022-09-09T13:52:16.939Z,1.20
2022-09-09T13:54:58.910Z,1.30
2022-09-09T13:58:04.010Z,1.40
2022-09-09T14:00:45.677Z,1.40
2022-09-09T14:03:31.940Z,1.10
2022-09-09T14:06:19.827Z,1.40
2022-09-09T14:09:01.938Z,1.17
2022-09-09T14:11:56.946Z,1.05
2022-09-09T14:14:43.949Z,1.58
2022-09-09T14:17:24.042Z,1.40
2022-09-09T14:20:16.948Z,1.30
2022-09-09T14:23:03.257Z,1.38
2022-09-09T14:25:50.946Z,1.23
2022-09-09T14:31:37.942Z,1.20
2022-09-09T14:34:24.945Z,1.40
2022-09-09T14:37:18.945Z,1.40
2022-09-09T14:39:59.872Z,1.30
2022-09-09T14:42:46.946Z,1.30
2022-09-09T14:45:33.993Z,1.30
2022-09-09T14:48:13.940Z,1.40
2022-09-09T14:51:00.943Z,1.20
2022-09-09T14:53:47.958Z,1.30
2022-09-09T14:56:38.565Z,1.60
2022-09-09T14:59:17.941Z,1.13
2022-09-09T15:01:58.454Z,1.35
2022-09-09T15:04:44.949Z,1.27
2022-09-09T15:07:26.586Z,1.20
2022-09-09T15:10:12.942Z,1.30
2022-09-09T15:12:59.966Z,1.10
2022-09-09T15:15:42.335Z,1.23
2022-09-09T15:18:29.964Z,1.50
2022-09-09T15:21:11.075Z,1.10
2022-09-09T15:23:58.949Z,1.20
2022-09-09T15:26:48.957Z,1.50
2022-09-09T15:29:35.974Z,1.15
2022-09-09T15:32:15.990Z,1.20
2022-09-09T15:35:02.985Z,1.40
2022-09-09T15:37:49.933Z,1.00
2022-09-09T15:40:33.153Z,1.17
2022-09-09T15:43:20.949Z,1.02
2022-09-09T15:46:27.098Z,1.13
2022-09-09T15:49:22.853Z,1.20
2022-09-09T15:52:10.985Z,1.00
2022-09-09T15:54:51.310Z,1.00
2022-09-09T15:57:37.950Z,1.27
2022-09-09T16:00:19.117Z,1.20
2022-09-09T16:03:05.949Z,1.08
2022-09-09T16:05:46.395Z,1.00
2022-09-09T16:08:38.962Z,0.90
2022-09-09T16:11:25.001Z,0.90
2022-09-09T16:14:19.960Z,1.00
2022-09-09T16:17:00.862Z,0.88
2022-09-09T16:19:48.977Z,1.02
2022-09-09T16:22:29.412Z,1.10
2022-09-09T16:25:15.970Z,1.10
2022-09-09T16:27:56.453Z,1.10
2022-09-09T16:30:42.956Z,0.90
2022-09-09T16:33:31.552Z,0.77
2022-09-09T16:36:15.945Z,1.05
2022-09-09T16:39:09.963Z,1.20
2022-09-09T16:41:59.952Z,0.90
2022-09-09T16:44:47.022Z,1.10
2022-09-09T16:47:26.966Z,1.17
2022-09-09T16:50:14.007Z,0.85
2022-09-09T16:52:53.966Z,1.10
2022-09-09T16:55:37.961Z,1.23
2022-09-09T16:58:25.977Z,0.93
2022-09-09T17:01:13.045Z,1.20
2022-09-09T17:03:55.463Z,1.30
2022-09-09T17:06:44.968Z,1.33
2022-09-09T17:09:28.400Z,1.17
2022-09-09T17:12:21.983Z,1.00
2022-09-09T17:15:09.822Z,1.40
2022-09-09T17:17:52.987Z,1.25
2022-09-09T17:20:46.325Z,1.13
2022-09-09T17:23:32.978Z,1.20
2022-09-09T17:26:17.253Z,1.00
2022-09-09T17:29:04.958Z,1.20
2022-09-09T17:31:51.974Z,1.00
2022-09-09T17:34:32.009Z,1.13
2022-09-09T17:37:19.981Z,1.25
2022-09-09T17:40:00.288Z,1.00
2022-09-09T17:42:47.986Z,1.35
2022-09-09T17:45:27.976Z,1.23
2022-09-09T17:48:14.972Z,1.10
2022-09-09T17:51:09.925Z,1.70
2022-09-09T17:53:52.983Z,1.60
2022-09-09T17:56:39.977Z,1.35
2022-09-09T17:59:28.989Z,1.25
2022-09-09T18:02:12.341Z,1.20
2022-09-09T18:04:59.013Z,1.48
2022-09-09T18:07:39.457Z,1.38
2022-09-09T18:10:26.002Z,1.38
2022-09-09T18:13:09.995Z,1.45
2022-09-09T18:15:57.008Z,1.55
2022-09-09T18:18:37.602Z,1.30
2022-09-09T18:21:24.970Z,1.33
2022-09-09T18:24:14.097Z,1.50
2022-09-09T18:26:54.970Z,1.48
2022-09-09T18:29:42.076Z,1.35
2022-09-09T18:32:22.973Z,1.45
2022-09-09T18:35:03.681Z,1.40
2022-09-09T18:37:49.995Z,1.38
2022-09-09T18:40:40.022Z,1.40
2022-09-09T18:43:19.993Z,1.33
2022-09-09T18:46:04.559Z,1.45
2022-09-09T18:48:55.985Z,1.58
2022-09-09T18:51:37.177Z,1.40
2022-09-09T18:54:36.993Z,1.40
2022-09-09T18:57:24.050Z,1.50
2022-09-09T19:00:03.980Z,1.20
2022-09-09T19:02:53.093Z,1.50
2022-09-09T19:05:33.995Z,1.40
2022-09-09T19:08:21.065Z,1.40
2022-09-09T19:11:00.990Z,1.20
2022-09-09T19:13:55.001Z,1.13
2022-09-09T19:16:42.990Z,1.38
2022-09-09T19:19:35.985Z,1.40
2022-09-09T19:22:23.023Z,1.05
2022-09-09T19:25:03.692Z,1.50
2022-09-09T19:27:49.995Z,1.55
2022-09-09T19:30:30.083Z,1.60
2022-09-09T19:33:17.000Z,1.30
2022-09-09T19:36:09.213Z,1.35
2022-09-09T19:38:55.994Z,1.30
2022-09-09T19:41:37.058Z,1.48
2022-09-09T19:44:23.985Z,1.20
2022-09-09T19:47:04.875Z,1.30
2022-09-09T19:49:50.996Z,1.30
2022-09-09T19:52:31.172Z,1.73
2022-09-09T19:55:18.010Z,1.50
2022-09-09T19:57:58.044Z,1.70
2022-09-09T20:00:44.997Z,1.50
2022-09-09T20:03:25.208Z,1.48
2022-09-09T20:06:15.014Z,1.23
2022-09-09T20:08:55.090Z,1.52
2022-09-09T20:11:41.998Z,1.60
2022-09-09T20:14:29.060Z,1.30
2022-09-09T20:17:08.999Z,1.40
2022-09-09T20:19:56.036Z,2.00
2022-09-09T20:22:36.266Z,1.50
2022-09-09T20:25:23.013Z,1.30
2022-09-09T20:28:03.046Z,1.42
2022-09-09T20:30:50.042Z,1.60
2022-09-09T20:33:32.171Z,1.50
2022-09-09T20:36:28.006Z,1.58
2022-09-09T20:39:11.806Z,1.35
2022-09-09T20:41:59.010Z,1.90
2022-09-09T20:44:39.038Z,1.60
2022-09-09T20:47:26.001Z,1.60
2022-09-09T20:50:13.005Z,1.52
2022-09-09T20:53:00.080Z,1.60
2022-09-09T20:55:41.001Z,1.73
2022-09-09T20:58:32.877Z,1.63
2022-09-09T21:01:13.106Z,1.67
2022-09-09T21:03:59.989Z,1.63
2022-09-09T21:06:40.071Z,1.55
2022-09-09T21:09:30.000Z,1.60
2022-09-09T21:12:10.376Z,1.60
2022-09-09T21:14:58.000Z,1.80
2022-09-09T21:17:47.014Z,1.70
2022-09-09T21:20:27.565Z,1.55
2022-09-09T21:23:13.989Z,1.88
2022-09-09T21:26:02.068Z,1.70
2022-09-09T21:28:42.014Z,1.75
2022-09-09T21:31:31.331Z,1.60
2022-09-09T21:34:12.009Z,1.63
2022-09-09T21:36:59.025Z,1.65
2022-09-09T21:39:40.520Z,2.22
2022-09-09T21:42:27.002Z,2.20
2022-09-09T21:45:07.075Z,2.80
2022-09-09T21:47:55.013Z,3.25
2022-09-09T21:50:35.519Z,2.15
2022-09-09T21:53:27.071Z,2.42
2022-09-09T21:56:09.085Z,2.83
2022-09-09T21:59:05.029Z,2.40
2022-09-09T22:01:46.099Z,3.00
2022-09-09T22:04:33.023Z,2.83
2022-09-09T22:07:17.026Z,2.75
2022-09-09T22:10:04.039Z,3.35
2022-09-09T22:12:51.034Z,2.72
2022-09-09T22:15:32.564Z,3.10
2022-09-09T22:18:20.029Z,3.40
2022-09-09T22:21:16.070Z,3.72
2022-09-09T22:24:04.013Z,2.85
2022-09-09T22:26:44.516Z,4.10
2022-09-09T22:29:31.036Z,4.03
2022-09-09T22:32:18.060Z,3.88
2022-09-09T22:34:58.007Z,4.32
2022-09-09T22:37:46.044Z,4.50
2022-09-09T22:40:26.093Z,5.50
2022-09-09T22:43:19.059Z,4.93
2022-09-09T22:46:06.055Z,5.00
2022-09-09T22:48:53.107Z,5.15
2022-09-09T22:51:33.020Z,4.53
2022-09-09T22:54:22.936Z,4.90
2022-09-09T22:57:03.034Z,4.82
2022-09-09T22:59:50.005Z,4.25
2022-09-09T23:02:30.605Z,4.57
2022-09-09T23:05:17.030Z,4.88
2022-09-09T23:08:05.030Z,4.95
2022-09-09T23:10:45.649Z,4.90
2022-09-09T23:13:32.018Z,4.70
2022-09-09T23:16:15.446Z,4.30
2022-09-09T23:19:02.024Z,4.57
2022-09-09T23:21:58.029Z,4.65
2022-09-09T23:24:38.655Z,3.78
2022-09-09T23:27:25.042Z,3.40
2022-09-09T23:30:15.078Z,4.32
2022-09-09T23:32:58.022Z,3.55
2022-09-09T23:35:45.034Z,4.25
2022-09-09T23:38:34.117Z,3.72
2022-09-09T23:41:20.037Z,3.63
2022-09-09T23:44:09.026Z,3.20
2022-09-09T23:46:56.085Z,2.85
2022-09-09T23:49:36.030Z,3.20
2022-09-09T23:52:16.526Z,3.17
2022-09-09T23:55:04.054Z,3.17
2022-09-09T23:57:44.913Z,2.70
